Noti, Oregon
Current Conditions -  °F | °C
As of 11:54 PM on Wednesday 26 Nov 2014 (Local Time) from KEUG Reporting Station
Overcast Overcast  
Wind Chill: 52°   Ceiling: 10000
Heat Index: 52°   Visibility: 10mi
Dew Point: 49°   Wind: 7mph
Humidity: 89%   Direction: 180°S
Pressure: 30.03"   Gusts: NA
Location:  44.06°N, 123.45°W
Report Text: KEUG 270754Z AUTO 18006KT 10SM OVC100 11/09 A3003 RMK AO2 SLP170 T01110094 401440056
Loading
Personal Weather Stations






























Interactive Weather Map New forecast layout! Learn more

10-Day Weather Forecast

Advertisements
Track Severe Weather on mobile